createdAt,value
2022-11-02T00:03:41.643Z,49.75
2022-11-02T00:06:09.624Z,46.00
2022-11-02T00:08:37.552Z,52.35
2022-11-02T00:11:05.571Z,45.33
2022-11-02T00:13:35.101Z,42.33
2022-11-02T00:16:03.656Z,48.78
2022-11-02T00:18:32.180Z,42.90
2022-11-02T00:21:00.015Z,40.17
2022-11-02T00:23:29.013Z,48.35
2022-11-02T00:26:00.674Z,47.47
2022-11-02T00:28:31.174Z,44.10
2022-11-02T00:31:00.373Z,46.33
2022-11-02T00:33:28.409Z,41.20
2022-11-02T00:35:56.666Z,47.83
2022-11-02T00:38:24.674Z,45.67
2022-11-02T00:40:52.578Z,38.55
2022-11-02T00:43:20.610Z,43.60
2022-11-02T00:45:48.461Z,44.00
2022-11-02T00:48:17.705Z,48.60
2022-11-02T00:50:45.635Z,45.17
2022-11-02T00:53:13.684Z,48.40
2022-11-02T00:55:41.467Z,43.55
2022-11-02T00:58:09.672Z,44.17
2022-11-02T01:00:37.566Z,49.38
2022-11-02T01:03:05.456Z,49.78
2022-11-02T01:05:34.599Z,51.20
2022-11-02T01:08:02.941Z,48.92
2022-11-02T01:10:31.069Z,48.15
2022-11-02T01:12:58.964Z,48.20
2022-11-02T01:15:26.767Z,50.35
2022-11-02T01:17:54.761Z,44.75
2022-11-02T01:20:22.591Z,47.20
2022-11-02T01:22:51.942Z,46.17
2022-11-02T01:25:19.852Z,44.95
2022-11-02T01:27:47.750Z,52.38
2022-11-02T01:30:15.798Z,45.08
2022-11-02T01:32:43.943Z,44.80
2022-11-02T01:35:11.655Z,51.70
2022-11-02T01:37:39.742Z,49.72
2022-11-02T01:40:10.115Z,50.13
2022-11-02T01:42:38.134Z,40.92
2022-11-02T01:45:07.774Z,42.78
2022-11-02T01:47:39.129Z,48.38
2022-11-02T01:50:11.459Z,44.57
2022-11-02T01:52:40.420Z,54.55
2022-11-02T01:55:14.792Z,49.45
2022-11-02T01:57:46.852Z,47.42
2022-11-02T02:00:17.385Z,47.05
2022-11-02T02:02:51.432Z,54.58
2022-11-02T02:05:21.628Z,47.65
2022-11-02T02:07:51.480Z,50.92
2022-11-02T02:10:20.903Z,48.63
2022-11-02T02:12:49.342Z,58.58
2022-11-02T02:15:17.307Z,51.03
2022-11-02T02:17:50.140Z,47.00
2022-11-02T02:20:33.436Z,53.45
2022-11-02T02:23:38.494Z,43.83
2022-11-02T02:26:24.520Z,45.15
2022-11-02T02:28:58.104Z,42.78
2022-11-02T02:31:34.139Z,47.58
2022-11-02T02:34:08.472Z,42.50
2022-11-02T02:39:20.330Z,45.95
2022-11-02T02:41:55.839Z,41.53
2022-11-02T02:44:30.695Z,45.42
2022-11-02T02:47:03.183Z,46.55
2022-11-02T02:49:38.923Z,46.85
2022-11-02T02:52:08.349Z,52.95
2022-11-02T02:54:39.811Z,43.70
2022-11-02T02:57:12.073Z,48.37
2022-11-02T02:59:43.828Z,47.95
2022-11-02T03:02:17.077Z,46.28
2022-11-02T03:04:45.252Z,50.13
2022-11-02T03:07:15.903Z,53.67
2022-11-02T03:09:48.130Z,49.10
2022-11-02T03:15:11.231Z,46.40
2022-11-02T03:17:47.616Z,45.42
2022-11-02T03:20:22.966Z,55.05
2022-11-02T03:23:06.892Z,50.40
2022-11-02T03:25:47.159Z,48.95
2022-11-02T03:28:20.168Z,52.78
2022-11-02T03:30:55.912Z,52.47
2022-11-02T03:33:30.366Z,52.33
2022-11-02T03:36:06.599Z,50.70
2022-11-02T03:38:43.236Z,51.35
2022-11-02T03:41:12.711Z,47.38
2022-11-02T03:43:42.851Z,48.58
2022-11-02T03:46:14.484Z,55.65
2022-11-02T03:48:45.843Z,48.50
2022-11-02T03:51:16.789Z,48.78
2022-11-02T03:53:50.389Z,50.88
2022-11-02T03:56:22.928Z,49.13
2022-11-02T03:58:50.880Z,58.85
2022-11-02T04:01:21.737Z,46.10
2022-11-02T04:03:49.702Z,60.95
2022-11-02T04:06:18.184Z,55.63
2022-11-02T04:08:48.150Z,52.83
2022-11-02T04:11:34.848Z,52.95
2022-11-02T04:14:20.557Z,53.15
2022-11-02T04:16:49.747Z,52.92
2022-11-02T04:19:28.875Z,60.38
2022-11-02T04:22:14.916Z,54.17
2022-11-02T04:25:00.898Z,54.63
2022-11-02T04:27:28.788Z,48.95
2022-11-02T04:29:56.827Z,53.35
2022-11-02T04:32:40.042Z,48.90
2022-11-02T04:35:09.320Z,46.58
2022-11-02T04:37:58.061Z,49.53
2022-11-02T04:40:26.328Z,43.00
2022-11-02T04:42:54.618Z,45.97
2022-11-02T04:45:22.349Z,43.25
2022-11-02T04:47:51.863Z,49.88
2022-11-02T04:50:19.561Z,43.13
2022-11-02T04:52:47.470Z,47.85
2022-11-02T04:55:15.613Z,51.38
2022-11-02T04:57:46.427Z,50.47
2022-11-02T05:00:15.671Z,49.20
2022-11-02T05:02:43.870Z,50.20
2022-11-02T05:05:13.008Z,52.75
2022-11-02T05:07:40.943Z,52.28
2022-11-02T05:10:09.314Z,50.45
2022-11-02T05:12:37.903Z,49.60
2022-11-02T05:15:06.538Z,49.33
2022-11-02T05:17:34.551Z,54.17
2022-11-02T05:20:02.734Z,53.78
2022-11-02T05:22:32.894Z,43.88
2022-11-02T05:25:00.795Z,46.40
2022-11-02T05:27:29.039Z,41.53
2022-11-02T05:29:56.806Z,52.28
2022-11-02T05:32:24.851Z,46.15
2022-11-02T05:34:52.606Z,55.78
2022-11-02T05:37:20.469Z,46.75
2022-11-02T05:39:50.677Z,46.67
2022-11-02T05:42:18.791Z,46.78
2022-11-02T05:44:46.519Z,52.33
2022-11-02T05:47:14.550Z,47.00
2022-11-02T05:49:42.328Z,51.90
2022-11-02T05:52:10.273Z,53.95
2022-11-02T05:54:38.174Z,49.58
2022-11-02T05:57:07.589Z,53.88
2022-11-02T05:59:35.308Z,48.35
2022-11-02T06:02:03.503Z,48.85
2022-11-02T06:04:31.396Z,54.05
2022-11-02T06:06:59.288Z,48.10
2022-11-02T06:09:27.582Z,52.33
2022-11-02T06:11:56.848Z,47.10
2022-11-02T06:14:25.900Z,47.40
2022-11-02T06:16:53.890Z,54.35
2022-11-02T06:19:21.697Z,53.47
2022-11-02T06:21:49.590Z,56.05
2022-11-02T06:24:17.460Z,54.10
2022-11-02T06:26:46.804Z,55.47
2022-11-02T06:29:14.967Z,58.05
2022-11-02T06:31:44.588Z,54.05
2022-11-02T06:34:12.316Z,52.70
2022-11-02T06:36:40.327Z,51.58
2022-11-02T06:39:08.144Z,53.20
2022-11-02T06:41:36.052Z,55.10
2022-11-02T06:44:03.877Z,50.65
2022-11-02T06:46:32.327Z,51.53
2022-11-02T06:49:01.533Z,52.45
2022-11-02T06:51:29.465Z,53.00
2022-11-02T06:53:57.355Z,53.03
2022-11-02T06:56:25.227Z,46.65
2022-11-02T06:58:53.109Z,49.58
2022-11-02T07:01:21.429Z,48.88
2022-11-02T07:03:49.211Z,54.33
2022-11-02T07:06:18.416Z,46.08
2022-11-02T07:08:46.354Z,52.78
2022-11-02T07:11:15.950Z,50.75
2022-11-02T07:13:43.887Z,49.22
2022-11-02T07:16:12.194Z,55.58
2022-11-02T07:18:39.931Z,50.90
2022-11-02T07:21:10.521Z,52.53
2022-11-02T07:23:39.992Z,56.22
2022-11-02T07:26:08.016Z,55.65
2022-11-02T07:28:36.822Z,60.08
2022-11-02T07:31:05.360Z,56.70
2022-11-02T07:33:33.339Z,52.50
2022-11-02T07:36:03.767Z,55.15
2022-11-02T07:38:31.988Z,54.20
2022-11-02T07:41:01.314Z,54.53
2022-11-02T07:43:29.112Z,50.05
2022-11-02T07:45:57.222Z,50.75
2022-11-02T07:48:24.964Z,49.97
2022-11-02T07:50:52.886Z,48.13
2022-11-02T07:53:20.929Z,42.25
2022-11-02T07:55:48.804Z,47.90
2022-11-02T07:58:17.967Z,47.40
2022-11-02T08:00:46.362Z,49.63
2022-11-02T08:03:14.769Z,36.53
2022-11-02T08:05:43.888Z,33.42
2022-11-02T08:08:14.153Z,37.28
2022-11-02T08:10:42.695Z,32.17
2022-11-02T08:13:12.315Z,31.25
2022-11-02T08:15:41.658Z,27.88
2022-11-02T08:18:14.669Z,29.13
2022-11-02T08:20:42.936Z,24.90
2022-11-02T08:23:11.778Z,90.78
2022-11-02T08:25:40.483Z,29.15
2022-11-02T08:28:13.066Z,30.30
2022-11-02T08:33:13.492Z,31.85
2022-11-02T08:35:41.530Z,38.25
2022-11-02T08:38:10.655Z,32.75
2022-11-02T08:40:38.868Z,32.78
2022-11-02T08:43:08.996Z,30.25
2022-11-02T08:46:12.700Z,28.67
2022-11-02T08:48:28.609Z,27.08
2022-11-02T08:50:58.496Z,26.52
2022-11-02T08:53:26.697Z,24.77
2022-11-02T08:55:54.589Z,22.58
2022-11-02T08:58:22.719Z,26.65
2022-11-02T09:00:53.830Z,24.27
2022-11-02T09:03:27.005Z,18.60
2022-11-02T09:06:00.741Z,23.17
2022-11-02T09:08:30.246Z,20.85
2022-11-02T09:11:00.653Z,21.33
2022-11-02T09:13:28.931Z,24.27
2022-11-02T09:15:59.317Z,23.35
2022-11-02T09:18:27.566Z,20.52
2022-11-02T09:20:55.305Z,21.38
2022-11-02T09:23:24.992Z,24.65
2022-11-02T09:25:53.583Z,28.33
2022-11-02T09:28:21.573Z,26.20
2022-11-02T09:30:49.501Z,27.02
2022-11-02T09:33:17.639Z,28.55
2022-11-02T09:35:48.094Z,22.77
2022-11-02T09:38:18.283Z,26.83
2022-11-02T09:40:54.563Z,19.77
2022-11-02T09:43:32.828Z,20.42
2022-11-02T09:46:05.483Z,17.90
2022-11-02T09:48:37.503Z,19.23
2022-11-02T09:51:09.805Z,18.35
2022-11-02T09:53:48.611Z,14.70
2022-11-02T09:56:20.465Z,21.95
2022-11-02T09:58:54.362Z,16.73
2022-11-02T10:01:43.160Z,17.55
2022-11-02T10:04:32.020Z,11.35
2022-11-02T10:07:07.863Z,13.27
2022-11-02T10:09:44.205Z,15.95
2022-11-02T10:12:17.875Z,11.68
2022-11-02T10:14:57.123Z,9.52
2022-11-02T10:17:28.299Z,10.32
2022-11-02T10:19:58.731Z,13.38
2022-11-02T10:22:29.827Z,19.25
2022-11-02T10:25:01.327Z,8.75
2022-11-02T10:27:34.179Z,13.30
2022-11-02T10:30:05.614Z,12.63
2022-11-02T10:32:36.257Z,8.45
2022-11-02T10:38:14.795Z,11.13
2022-11-02T10:40:59.591Z,11.45
2022-11-02T10:43:45.227Z,10.38
2022-11-02T10:46:30.804Z,10.90
2022-11-02T10:51:33.615Z,9.02
2022-11-02T10:54:01.474Z,12.18
2022-11-02T10:56:32.732Z,6.93
2022-11-02T10:59:09.801Z,8.20
2022-11-02T11:01:38.139Z,11.05
2022-11-02T11:04:09.033Z,10.50
2022-11-02T11:06:38.761Z,5.97
2022-11-02T11:09:16.206Z,9.27
2022-11-02T11:11:54.701Z,6.90
2022-11-02T11:20:07.614Z,7.40
2022-11-02T11:22:37.813Z,10.02
2022-11-02T11:25:27.152Z,9.82
2022-11-02T11:27:57.773Z,6.10
2022-11-02T11:33:23.050Z,6.45
2022-11-02T11:35:51.896Z,7.15
2022-11-02T11:38:23.096Z,5.60
2022-11-02T11:40:54.681Z,6.25
2022-11-02T11:46:05.822Z,6.18
2022-11-02T11:48:39.006Z,8.68
2022-11-02T11:51:26.445Z,5.40
2022-11-02T11:54:17.874Z,5.55
2022-11-02T11:56:46.323Z,7.30
2022-11-02T11:59:22.013Z,7.72
2022-11-02T12:01:54.317Z,9.57
2022-11-02T12:04:30.930Z,10.95
2022-11-02T12:07:13.854Z,6.38
2022-11-02T12:09:48.113Z,9.40
2022-11-02T12:12:26.167Z,7.63
2022-11-02T12:15:06.461Z,5.53
2022-11-02T12:17:49.304Z,6.15
2022-11-02T12:20:28.410Z,3.78
2022-11-02T12:23:08.840Z,8.57
2022-11-02T12:25:46.345Z,12.40
2022-11-02T12:28:27.330Z,11.02
2022-11-02T12:31:03.472Z,7.47
2022-11-02T12:33:45.482Z,7.20
2022-11-02T12:36:26.371Z,10.55
2022-11-02T12:39:03.454Z,11.52
2022-11-02T12:42:11.392Z,11.25
2022-11-02T12:45:02.845Z,7.20
2022-11-02T12:47:44.125Z,20.48
2022-11-02T12:50:22.529Z,12.13
2022-11-02T12:53:00.498Z,7.63
2022-11-02T12:55:38.185Z,6.47
2022-11-02T12:58:14.385Z,5.97
2022-11-02T13:00:45.787Z,57.58
2022-11-02T13:03:27.755Z,7.35
2022-11-02T13:06:06.328Z,6.80
2022-11-02T13:08:40.224Z,7.38
2022-11-02T13:11:15.495Z,51.58
2022-11-02T13:13:47.672Z,89.43
2022-11-02T13:16:17.795Z,7.68
2022-11-02T13:18:50.501Z,5.55
2022-11-02T13:21:24.767Z,8.63
2022-11-02T13:23:57.221Z,7.35
2022-11-02T13:26:30.068Z,7.97
2022-11-02T13:29:03.953Z,14.98
2022-11-02T13:31:36.835Z,13.40
2022-11-02T13:34:11.165Z,8.30
2022-11-02T13:36:40.930Z,8.65
2022-11-02T13:39:15.196Z,9.70
2022-11-02T13:42:04.136Z,11.27
2022-11-02T13:44:55.394Z,6.68
2022-11-02T13:47:43.449Z,7.55
2022-11-02T13:50:16.260Z,12.65
2022-11-02T13:52:50.110Z,10.57
2022-11-02T13:55:21.379Z,8.93
2022-11-02T13:57:54.131Z,9.27
2022-11-02T14:00:30.635Z,11.50
2022-11-02T14:03:04.883Z,10.55
2022-11-02T14:05:36.607Z,10.73
2022-11-02T14:08:08.912Z,15.02
2022-11-02T14:10:39.674Z,8.90
2022-11-02T14:13:13.988Z,11.38
2022-11-02T14:15:43.280Z,10.75
2022-11-02T14:18:14.460Z,8.80
2022-11-02T14:20:44.007Z,10.35
2022-11-02T14:23:39.576Z,12.95
2022-11-02T14:26:34.429Z,10.07
2022-11-02T14:29:26.607Z,7.88
2022-11-02T14:32:02.352Z,11.93
2022-11-02T14:34:55.061Z,11.43
2022-11-02T14:37:39.532Z,12.55
2022-11-02T14:40:21.294Z,21.13
2022-11-02T14:43:34.209Z,31.83
2022-11-02T14:46:11.057Z,49.90
2022-11-02T14:48:48.282Z,36.40
2022-11-02T14:51:21.054Z,33.58
2022-11-02T14:53:51.092Z,34.55
2022-11-02T14:56:20.383Z,34.83
2022-11-02T14:58:53.265Z,26.58
2022-11-02T15:01:22.091Z,38.65
2022-11-02T15:03:51.348Z,39.45
2022-11-02T15:06:23.748Z,20.35
2022-11-02T15:08:55.615Z,28.98
2022-11-02T15:11:48.145Z,28.05
2022-11-02T15:14:54.942Z,28.90
2022-11-02T15:17:55.390Z,27.08
2022-11-02T15:20:29.742Z,34.40
2022-11-02T15:23:29.873Z,33.55
2022-11-02T15:26:00.067Z,30.48
2022-11-02T15:28:33.517Z,36.58
2022-11-02T15:31:07.085Z,30.08
2022-11-02T15:33:37.805Z,30.58
2022-11-02T15:36:09.390Z,31.15
2022-11-02T15:38:40.219Z,25.43
2022-11-02T15:41:20.784Z,26.48
2022-11-02T15:44:11.792Z,21.92
2022-11-02T15:46:53.434Z,26.98
2022-11-02T15:49:36.466Z,24.27
2022-11-02T15:52:16.329Z,23.50
2022-11-02T15:55:07.380Z,30.40
2022-11-02T15:57:44.776Z,25.27
2022-11-02T16:00:19.958Z,30.17
2022-11-02T16:02:50.765Z,25.85
2022-11-02T16:05:23.439Z,28.33
2022-11-02T16:08:10.525Z,26.05
2022-11-02T16:10:39.109Z,21.10
2022-11-02T16:13:17.202Z,24.48
2022-11-02T16:15:48.760Z,25.42
2022-11-02T16:18:24.853Z,24.08
2022-11-02T16:20:54.891Z,29.60
2022-11-02T16:23:26.447Z,40.42
2022-11-02T16:25:57.096Z,42.85
2022-11-02T16:28:27.293Z,56.22
2022-11-02T16:31:10.915Z,48.03
2022-11-02T16:33:46.366Z,49.60
2022-11-02T16:36:16.568Z,32.30
2022-11-02T16:38:48.912Z,28.88
2022-11-02T16:41:18.428Z,25.15
2022-11-02T16:43:49.636Z,26.23
2022-11-02T16:46:19.006Z,25.70
2022-11-02T16:49:03.603Z,19.90
2022-11-02T16:51:31.548Z,18.30
2022-11-02T16:54:20.807Z,15.75
2022-11-02T16:56:51.191Z,15.57
2022-11-02T16:59:21.282Z,14.75
2022-11-02T17:01:50.728Z,19.55
2022-11-02T17:04:22.809Z,16.17
2022-11-02T17:06:53.986Z,20.45
2022-11-02T17:09:28.139Z,16.88
2022-11-02T17:11:58.769Z,15.13
2022-11-02T17:14:28.843Z,15.23
2022-11-02T17:17:04.863Z,15.80
2022-11-02T17:19:47.969Z,17.02
2022-11-02T17:22:23.760Z,23.08
2022-11-02T17:25:05.485Z,13.70
2022-11-02T17:27:39.118Z,21.83
2022-11-02T17:30:44.384Z,25.13
2022-11-02T17:33:25.784Z,18.17
2022-11-02T17:35:55.852Z,12.35
2022-11-02T17:38:26.993Z,16.35
2022-11-02T17:40:56.120Z,18.20
2022-11-02T17:43:23.792Z,17.23
2022-11-02T17:45:56.283Z,18.08
2022-11-02T17:48:28.388Z,18.50
2022-11-02T17:53:25.356Z,17.98
2022-11-02T17:55:54.371Z,17.88
2022-11-02T17:58:22.109Z,17.73
2022-11-02T18:00:53.688Z,27.23
2022-11-02T18:03:25.368Z,19.55
2022-11-02T18:05:59.831Z,22.77
2022-11-02T18:08:28.183Z,17.38
2022-11-02T18:10:56.709Z,20.65
2022-11-02T18:13:25.267Z,15.98
2022-11-02T18:15:53.215Z,20.42
2022-11-02T18:18:21.318Z,17.05
2022-11-02T18:20:49.320Z,21.08
2022-11-02T18:23:19.845Z,22.55
2022-11-02T18:25:48.112Z,18.23
2022-11-02T18:28:15.869Z,22.10
2022-11-02T18:30:45.001Z,16.52
2022-11-02T18:33:14.024Z,20.85
2022-11-02T18:35:44.279Z,18.65
2022-11-02T18:38:12.685Z,22.65
2022-11-02T18:40:42.294Z,20.38
2022-11-02T18:43:10.258Z,22.55
2022-11-02T18:45:38.472Z,19.35
2022-11-02T18:48:07.147Z,24.10
2022-11-02T18:50:35.336Z,21.52
2022-11-02T18:53:03.040Z,17.98
2022-11-02T18:55:31.352Z,22.88
2022-11-02T18:58:00.395Z,21.80
2022-11-02T19:00:28.389Z,21.75
2022-11-02T19:02:56.307Z,21.65
2022-11-02T19:05:42.135Z,20.48
2022-11-02T19:08:28.561Z,23.40
2022-11-02T19:10:56.593Z,23.52
2022-11-02T19:13:26.576Z,23.02
2022-11-02T19:15:54.603Z,23.17
2022-11-02T19:18:22.379Z,24.17
2022-11-02T19:20:50.560Z,24.58
2022-11-02T19:23:18.247Z,25.45
2022-11-02T19:25:51.302Z,26.05
2022-11-02T19:28:19.321Z,20.55
2022-11-02T19:30:48.621Z,26.58
2022-11-02T19:33:16.319Z,23.67
2022-11-02T19:35:44.638Z,23.25
2022-11-02T19:38:12.323Z,18.38
2022-11-02T19:40:40.264Z,26.05
2022-11-02T19:43:08.522Z,21.85
2022-11-02T19:45:36.676Z,25.20
2022-11-02T19:48:06.131Z,27.95
2022-11-02T19:50:34.544Z,24.70
2022-11-02T19:53:02.241Z,19.50
2022-11-02T19:55:30.224Z,22.83
2022-11-02T19:57:58.109Z,27.92
2022-11-02T20:00:26.268Z,22.80
2022-11-02T20:02:54.016Z,30.75
2022-11-02T20:05:23.552Z,21.05
2022-11-02T20:07:52.340Z,27.30
2022-11-02T20:10:20.322Z,23.33
2022-11-02T20:12:48.119Z,20.88
2022-11-02T20:15:16.124Z,29.95
2022-11-02T20:18:05.496Z,26.38
2022-11-02T20:20:33.304Z,24.15
2022-11-02T20:23:01.338Z,23.73
2022-11-02T20:25:29.384Z,19.13
2022-11-02T20:27:57.505Z,21.65
2022-11-02T20:30:25.466Z,22.75
2022-11-02T20:32:53.139Z,23.52
2022-11-02T20:35:25.437Z,15.65
2022-11-02T20:37:54.813Z,23.45
2022-11-02T20:40:23.854Z,16.55
2022-11-02T20:42:51.658Z,16.13
2022-11-02T20:45:19.686Z,28.33
2022-11-02T20:47:47.463Z,25.88
2022-11-02T20:50:16.855Z,25.08
2022-11-02T20:52:46.635Z,16.05
2022-11-02T20:55:16.377Z,24.85
2022-11-02T20:57:44.060Z,28.48
2022-11-02T21:00:14.113Z,24.17
2022-11-02T21:02:46.115Z,22.23
2022-11-02T21:05:14.679Z,21.25
2022-11-02T21:07:42.457Z,23.20
2022-11-02T21:10:11.404Z,21.23
2022-11-02T21:12:58.284Z,16.35
2022-11-02T21:15:26.375Z,20.98
2022-11-02T21:17:54.479Z,19.20
2022-11-02T21:20:34.654Z,17.02
2022-11-02T21:23:03.714Z,18.50
2022-11-02T21:25:33.144Z,17.48
2022-11-02T21:28:02.176Z,24.75
2022-11-02T21:30:31.106Z,16.90
2022-11-02T21:32:58.874Z,21.30
2022-11-02T21:35:26.888Z,21.13
2022-11-02T21:38:01.259Z,17.05
2022-11-02T21:40:31.875Z,19.80
2022-11-02T21:43:00.655Z,21.38
2022-11-02T21:45:34.845Z,14.68
2022-11-02T21:48:05.732Z,21.25
2022-11-02T21:50:33.849Z,19.00
2022-11-02T21:53:01.516Z,20.65
2022-11-02T21:55:29.975Z,16.60
2022-11-02T21:57:57.668Z,18.88
2022-11-02T22:00:45.960Z,15.38
2022-11-02T22:03:14.387Z,18.08
2022-11-02T22:05:59.437Z,22.17
2022-11-02T22:08:39.406Z,19.58
2022-11-02T22:11:08.886Z,21.88
2022-11-02T22:13:37.372Z,23.58
2022-11-02T22:16:14.745Z,21.63
2022-11-02T22:18:45.663Z,24.20
2022-11-02T22:21:15.160Z,22.92
2022-11-02T22:23:44.924Z,19.25
2022-11-02T22:26:15.723Z,20.83
2022-11-02T22:28:45.034Z,23.48
2022-11-02T22:31:15.568Z,24.70
2022-11-02T22:33:45.250Z,22.48
2022-11-02T22:36:16.208Z,20.40
2022-11-02T22:38:51.483Z,19.63
2022-11-02T22:41:21.816Z,15.63
2022-11-02T22:43:51.299Z,20.17
2022-11-02T22:46:19.597Z,19.08
2022-11-02T22:48:48.889Z,20.23
2022-11-02T22:51:19.008Z,18.95
2022-11-02T22:53:46.672Z,21.00
2022-11-02T22:56:15.956Z,20.70
2022-11-02T22:58:46.552Z,22.15
2022-11-02T23:01:18.839Z,25.67
2022-11-02T23:03:49.226Z,22.15
2022-11-02T23:06:18.423Z,25.95
2022-11-02T23:08:46.840Z,24.83
2022-11-02T23:11:22.695Z,23.38
2022-11-02T23:13:53.319Z,23.15
2022-11-02T23:16:24.121Z,24.48
2022-11-02T23:19:13.355Z,21.05
2022-11-02T23:21:43.522Z,19.20
2022-11-02T23:24:29.813Z,20.45
2022-11-02T23:26:58.508Z,25.85
2022-11-02T23:29:43.731Z,24.15
2022-11-02T23:32:28.049Z,21.33
2022-11-02T23:35:17.702Z,27.08
2022-11-02T23:37:47.275Z,21.85
2022-11-02T23:40:16.532Z,21.52
2022-11-02T23:42:44.787Z,25.10
2022-11-02T23:45:12.947Z,20.67
2022-11-02T23:48:01.001Z,19.33
2022-11-02T23:50:50.405Z,23.65
2022-11-02T23:53:38.504Z,19.95
2022-11-02T23:56:25.366Z,21.40
2022-11-02T23:59:07.049Z,27.90
